• Join FlightAware (Why Join?)
  • Login
  • US Flag 
04:01PM EST


 

Airport Tracker/Info


-or-


 

Live Flight TrackerFlight Track Log ✈ N277RC ✈ 31-Jul-2014 ✈ KSBS - KDAL

Flight Track Log - Related Links

Times and Time Zones

All times are in EDT time to prevent confusion due to time zone crossing. See the N277RC flight status page for this flight to view local times or setup timezone preferences in your user account.

Time Position Orientation Groundspeed Altitude Reporting Facility
EDT Latitude Longitude Course Direction KTS MPH feet Rate Location/Type
03:23PM 40.5819 -106.9883 131° Southeast 197 227 13,000  Level Denver Center
03:24PM 40.5197 -107.0161 199° South 262 302 14,900 2,323 Climbing Denver Center
03:25PM 40.4603 -106.9353 134° Southeast 271 312 17,800 2,855 Climbing Denver Center
03:26PM 40.4114 -106.8539 128° Southeast 270 311 20,800 2,468 Climbing Denver Center
03:27PM 40.3636 -106.7783 130° Southeast 269 310 22,900 1,248 Climbing Denver Center
03:28PM 40.3258 -106.6706 115° Southeast 325 374 23,400 1,296 Climbing Denver Center
03:29PM 40.0950 -106.2261 131° Southeast  Level Estimated
03:29PM 40.2406 -106.6178 155° Southeast 344 396 25,600  Level Denver Center
03:31PM 40.1325 -106.5989 172° South 347 399 26,000 532 Climbing Denver Center
03:32PM 40.0269 -106.5917 177° South 376 433 26,700 1,210 Climbing Denver Center
03:33PM 39.9389 -106.5139 146° Southeast 364 419 28,500 1,839 Climbing Denver Center
03:34PM 39.8914 -106.3986 118° Southeast 360 414 30,500 1,742 Climbing Denver Center
03:35PM 39.8594 -106.2828 110° East 344 396 32,100 1,392 Climbing Denver Center
03:36PM 39.8286 -106.1650 109° East 342 394 33,400 1,104 Climbing Denver Center
03:37PM 39.7931 -106.0461 111° Southeast 349 402 34,400 968 Climbing Denver Center
03:38PM 39.7319 -105.9392 127° Southeast 358 412 35,400 823 Climbing Denver Center
03:39PM 39.6694 -105.8433 130° Southeast 357 411 36,100 726 Climbing Denver Center
03:40PM 39.6022 -105.7386 130° Southeast 364 419 36,900 774 Climbing Denver Center
03:41PM 39.5183 -105.6094 130° Southeast 377 434 37,700 726 Climbing Denver Center
03:42PM 39.4467 -105.5014 131° Southeast 385 443 38,400 629 Climbing Denver Center
03:43PM 39.3761 -105.3928 130° Southeast 388 447 39,000 288 Climbing Denver Center
03:44PM 39.3000 -105.2806 131° Southeast 401 461 39,000  Level Denver Center
03:45PM 39.2225 -105.1625 130° Southeast 416 479 39,000  Level Denver Center
03:46PM 39.1239 -105.0178 131° Southeast 443 510 39,000  Level Denver Center
03:47PM 39.0411 -104.8933 131° Southeast 457 526 39,000  Level Denver Center
03:48PM 38.9575 -104.7714 131° Southeast 454 522 39,000  Level Denver Center
03:49PM 38.8736 -104.6453 130° Southeast 461 531 39,000  Level Denver Center
03:50PM 38.7919 -104.5175 129° Southeast 462 532 39,000  Level Denver Center
03:51PM 38.7064 -104.3933 131° Southeast 462 532 39,000  Level Denver Center
03:52PM 38.6042 -104.2433 131° Southeast 463 533 39,000  Level Denver Center
03:53PM 38.5172 -104.1189 132° Southeast 466 536 39,000  Level Denver Center
03:54PM 38.4311 -103.9936 131° Southeast 466 536 39,000  Level Denver Center
03:55PM 38.3450 -103.8692 131° Southeast 466 536 39,000  Level Denver Center
03:56PM 38.2581 -103.7431 131° Southeast 468 539 39,000  Level Denver Center
03:57PM 38.1700 -103.6183 132° Southeast 469 540 39,000  Level Denver Center
03:58PM 38.0656 -103.4689 132° Southeast 471 542 39,000  Level Denver Center
04:00PM 37.9781 -103.3442 132° Southeast 470 541 39,000  Level Denver Center
04:01PM 37.8889 -103.2192 132° Southeast 471 542 39,000  Level Denver Center
04:02PM 37.8017 -103.0936 131° Southeast 471 542 39,000  Level Denver Center
04:03PM 37.7133 -102.9703 132° Southeast 472 543 39,000  Level Denver Center
04:04PM 37.6247 -102.8467 132° Southeast 473 544 39,000  Level Denver Center
04:05PM 37.5358 -102.7225 132° Southeast 474 545 39,000  Level Denver Center
04:06PM 37.4508 -102.6019 132° Southeast 473 544 39,000  Level Kansas City Center
04:07PM 37.3650 -102.4839 132° Southeast 474 545 39,000  Level Kansas City Center
04:08PM 37.2672 -102.3475 132° Southeast 474 545 39,000  Level Kansas City Center
04:09PM 37.1808 -102.2311 133° Southeast 474 545 39,000  Level Kansas City Center
04:09PM 37.1108 -102.1350 132° Southeast 475 547 39,000  Level Albuquerque Center
04:10PM 37.0250 -102.0183 133° Southeast 475 547 39,000  Level Albuquerque Center
04:11PM 36.9258 -101.8822 132° Southeast 475 547 39,000  Level Albuquerque Center
04:12PM 36.8400 -101.7675 133° Southeast 475 547 39,000  Level Albuquerque Center
04:13PM 36.7411 -101.6331 133° Southeast 475 547 39,000  Level Albuquerque Center
04:14PM 36.6564 -101.5189 133° Southeast 474 545 39,000  Level Albuquerque Center
04:16PM 36.5567 -101.3853 133° Southeast 474 545 39,000  Level Albuquerque Center
04:17PM 36.4708 -101.2708 133° Southeast 474 545 39,000  Level Albuquerque Center
04:18PM 36.3714 -101.1375 133° Southeast 473 544 39,000  Level Albuquerque Center
04:19PM 36.2850 -101.0239 133° Southeast 473 544 39,000  Level Albuquerque Center
04:20PM 36.1881 -100.8925 132° Southeast 473 544 39,000  Level Albuquerque Center
04:21PM 36.0983 -100.7742 133° Southeast 469 540 39,000  Level Albuquerque Center
04:22PM 36.0083 -100.6572 134° Southeast 470 541 39,000  Level Albuquerque Center
04:23PM 35.9178 -100.5394 133° Southeast 470 541 39,000  Level Albuquerque Center
04:24PM 35.8281 -100.4219 133° Southeast 470 541 39,000  Level Albuquerque Center
04:25PM 35.7389 -100.3056 133° Southeast 470 541 39,000  Level Albuquerque Center
04:26PM 35.6297 -100.1689 134° Southeast 469 540 39,000  Level Albuquerque Center
04:26PM 35.5925 -100.1267 137° Southeast 467 537 39,000  Level Fort Worth Center
04:27PM 35.4778 -99.9939 137° Southeast 469 540 39,000  Level Fort Worth Center
04:28PM 35.3819 -99.8844 137° Southeast 470 541 39,000  Level Fort Worth Center
04:30PM 35.2875 -99.7744 136° Southeast 470 541 39,000  Level Fort Worth Center
04:31PM 35.1919 -99.6664 137° Southeast 470 541 39,000  Level Fort Worth Center
04:32PM 35.0964 -99.5567 137° Southeast 471 542 39,000  Level Fort Worth Center
04:33PM 34.9806 -99.4258 137° Southeast 473 544 39,000  Level Fort Worth Center
04:34PM 34.8850 -99.3167 137° Southeast 473 544 39,000 -97 Level Fort Worth Center
04:35PM 34.7886 -99.2097 138° Southeast 472 543 38,800 -624 Descending Fort Worth Center
04:36PM 34.6911 -99.0989 137° Southeast 474 545 37,700 -864 Descending Fort Worth Center
04:37PM 34.5878 -99.0000 142° Southeast 478 550 37,000 -339 Descending Fort Worth Center
04:38PM 34.4789 -98.9269 151° Southeast 450 518 37,000 -242 Level Fort Worth Center
04:39PM 34.3539 -98.8433 151° Southeast 429 494 36,500 -1,248 Descending Fort Worth Center
04:40PM 34.2425 -98.7756 153° Southeast 443 510 34,400 -1,920 Descending Fort Worth Center
04:41PM 34.1256 -98.7092 155° Southeast 459 528 32,500 -2,032 Descending Fort Worth Center
04:42PM 34.0156 -98.6453 154° Southeast 461 531 30,200 -1,694 Descending Fort Worth Center
04:43PM 33.8800 -98.5664 154° Southeast 455 524 29,000 -1,500 Descending Fort Worth Center
04:44PM 33.7944 -98.4594 134° Southeast 481 554 27,100 -2,226 Descending Fort Worth Center
04:45PM 33.7408 -98.3222 115° Southeast 459 528 24,400 -3,024 Descending Fort Worth Center
04:46PM 33.6850 -98.1789 115° Southeast 445 512 20,800 -3,264 Descending Fort Worth Center
04:47PM 33.6317 -98.0497 116° Southeast 412 474 17,600 -2,032 Descending Fort Worth Center
04:48PM 33.5844 -97.9361 116° Southeast 365 420 16,600 -1,016 Descending Fort Worth Center
04:49PM 33.5347 -97.8247 118° Southeast 374 430 15,500 -1,258 Descending Fort Worth Center
04:50PM 33.4553 -97.7272 134° Southeast 386 444 14,000 -1,344 Descending Fort Worth Center
04:51PM 33.3814 -97.6414 136° Southeast 369 425 12,700 -1,248 Descending Fort Worth Center
04:52PM 33.3094 -97.5558 135° Southeast 364 419 11,400 -774 Descending Fort Worth Center
04:53PM 33.2325 -97.4656 136° Southeast 358 412 11,100 -194 Descending Fort Worth Center
04:54PM 33.1611 -97.3817 135° Southeast 338 389 11,000  Descending Fort Worth Center
04:55PM 33.0961 -97.3058 136° Southeast 332 382 11,100  Climbing Fort Worth Center
04:56PM 33.0314 -97.2306 136° Southeast 327 376 11,000 -48 Descending Fort Worth Center
04:58PM 32.9736 -97.1608 135° Southeast 272 313 11,000 -1,161 Level Fort Worth Center
04:59PM 32.9203 -97.1008 137° Southeast 267 307 8,600 -2,323 Descending Fort Worth Center
05:00PM 32.8672 -97.0372 135° Southeast 254 292 6,200 -1,210 Descending Fort Worth Center
05:01PM 32.8197 -96.9797 135° Southeast 247 284 6,100 -576 Descending Fort Worth Center
05:02PM 32.7656 -96.9169 136° Southeast 252 290 5,000 -720 Descending Fort Worth Center
05:03PM 32.7258 -96.8683 134° Southeast 209 241 4,600 -774 Descending Fort Worth Center
05:04PM 32.6806 -96.8169 136° Southeast 219 252 3,400 -1,016 Descending Fort Worth Center
05:05PM 32.6744 -96.7608 97° East 187 215 2,500 -484 Descending Fort Worth Center
05:06PM 32.7142 -96.7308 32° Northeast 173 199 2,400 -192 Descending Fort Worth Center
05:07PM 32.7664 -96.7497 343° North 185 213 2,100 -384 Descending Fort Worth Center
05:08PM 32.7981 -96.7875 315° West 167 192 1,600 -581 Descending Fort Worth Center
05:09PM 32.8281 -96.8225 316° Northwest 142 163 900 -435 Descending Fort Worth Center
05:10PM 32.8503 -96.8494 314° West 133 153 700 -194 Descending Fort Worth Center